EmailTwitter


Observations de surface / Québec / EGYD

Régions: Québec | Canada | États-Unis | Europe | France | UK | Ailleurs
Station
Affichage
Infos & localisation pour EGYD | Aide pour décoder les METARs

Observations prises le 2017-09-19 à 12H50 UTC à CRANWELL RAF, UK (EGYD)

Etat du ciel: quelques nuages.

Température: 15.0 Celsius

Point de rosée: 7.0 Celsius

Humidité relative: 59%

Vents: Ouest à 9 km/h ou 5 noeuds.

Pression au niveau moyen de la mer: 102.10 kilopascals.

Visibilité horizontale: 6.21 milles terrestres ou 9.94 kilomètres.

Observation METAR:

EGYD 191250Z 26005KT 9999 FEW030 15/07 Q1021 BLU NOSIG=